sensor_id;sensor_type;location;lat;lon;timestamp;temperature;humidity
678;DHT22;321;48.814;9.132;2023-04-01T00:00:59;9.60;99.90
678;DHT22;321;48.814;9.132;2023-04-01T00:03:32;9.50;99.90
678;DHT22;321;48.814;9.132;2023-04-01T00:05:59;9.60;99.90
678;DHT22;321;48.814;9.132;2023-04-01T00:08:26;9.60;99.90
678;DHT22;321;48.814;9.132;2023-04-01T00:10:52;9.60;99.90
678;DHT22;321;48.814;9.132;2023-04-01T00:13:18;9.70;99.90
678;DHT22;321;48.814;9.132;2023-04-01T00:15:44;9.80;99.90
678;DHT22;321;48.814;9.132;2023-04-01T00:18:10;9.90;99.90
678;DHT22;321;48.814;9.132;2023-04-01T00:20:36;9.70;99.90
678;DHT22;321;48.814;9.132;2023-04-01T00:23:02;9.60;99.90
678;DHT22;321;48.814;9.132;2023-04-01T00:25:28;9.80;99.90
678;DHT22;321;48.814;9.132;2023-04-01T00:27:54;9.90;99.90
678;DHT22;321;48.814;9.132;2023-04-01T00:30:19;9.90;99.90
678;DHT22;321;48.814;9.132;2023-04-01T00:32:45;9.80;99.90
678;DHT22;321;48.814;9.132;2023-04-01T00:35:11;10.00;99.90
678;DHT22;321;48.814;9.132;2023-04-01T00:37:38;10.10;99.90
678;DHT22;321;48.814;9.132;2023-04-01T00:40:06;10.00;99.90
678;DHT22;321;48.814;9.132;2023-04-01T00:42:32;10.10;99.90
678;DHT22;321;48.814;9.132;2023-04-01T00:44:58;10.20;99.90
678;DHT22;321;48.814;9.132;2023-04-01T00:47:43;10.20;99.90
678;DHT22;321;48.814;9.132;2023-04-01T00:50:09;10.00;99.90
678;DHT22;321;48.814;9.132;2023-04-01T00:52:35;10.00;99.90
678;DHT22;321;48.814;9.132;2023-04-01T00:55:03;10.10;99.90
678;DHT22;321;48.814;9.132;2023-04-01T00:57:34;10.00;99.90
678;DHT22;321;48.814;9.132;2023-04-01T01:00:04;10.00;99.90
678;DHT22;321;48.814;9.132;2023-04-01T01:02:32;10.10;99.90
678;DHT22;321;48.814;9.132;2023-04-01T01:04:58;10.20;99.90
678;DHT22;321;48.814;9.132;2023-04-01T01:08:00;10.30;99.90
678;DHT22;321;48.814;9.132;2023-04-01T01:10:34;10.40;99.90
678;DHT22;321;48.814;9.132;2023-04-01T01:27:00;10.30;99.90
678;DHT22;321;48.814;9.132;2023-04-01T01:37:43;10.40;99.90
678;DHT22;321;48.814;9.132;2023-04-01T01:40:12;10.40;99.90
678;DHT22;321;48.814;9.132;2023-04-01T01:42:41;10.70;99.90
678;DHT22;321;48.814;9.132;2023-04-01T01:45:10;10.70;99.90
678;DHT22;321;48.814;9.132;2023-04-01T01:47:37;10.60;99.90
678;DHT22;321;48.814;9.132;2023-04-01T01:50:13;10.60;99.90
678;DHT22;321;48.814;9.132;2023-04-01T01:52:39;10.40;99.90
678;DHT22;321;48.814;9.132;2023-04-01T01:58:32;10.30;99.90
678;DHT22;321;48.814;9.132;2023-04-01T02:01:13;10.20;99.90
678;DHT22;321;48.814;9.132;2023-04-01T02:03:52;10.00;99.90
678;DHT22;321;48.814;9.132;2023-04-01T02:06:21;10.00;99.90
678;DHT22;321;48.814;9.132;2023-04-01T02:08:52;10.10;99.90
678;DHT22;321;48.814;9.132;2023-04-01T02:11:38;10.10;99.90
678;DHT22;321;48.814;9.132;2023-04-01T02:14:20;10.20;99.90
678;DHT22;321;48.814;9.132;2023-04-01T02:16:59;10.10;99.90
678;DHT22;321;48.814;9.132;2023-04-01T02:19:37;10.20;99.90
678;DHT22;321;48.814;9.132;2023-04-01T02:22:13;10.10;99.90
678;DHT22;321;48.814;9.132;2023-04-01T02:24:40;10.20;99.90
678;DHT22;321;48.814;9.132;2023-04-01T02:27:06;10.20;99.90
678;DHT22;321;48.814;9.132;2023-04-01T02:29:32;10.00;99.90
678;DHT22;321;48.814;9.132;2023-04-01T02:31:58;10.00;99.90
678;DHT22;321;48.814;9.132;2023-04-01T02:34:28;10.00;99.90
678;DHT22;321;48.814;9.132;2023-04-01T02:36:55;10.20;99.90
678;DHT22;321;48.814;9.132;2023-04-01T02:39:21;10.30;99.90
678;DHT22;321;48.814;9.132;2023-04-01T02:41:46;10.00;99.90
678;DHT22;321;48.814;9.132;2023-04-01T02:44:14;10.00;99.90
678;DHT22;321;48.814;9.132;2023-04-01T02:46:40;10.10;99.90
678;DHT22;321;48.814;9.132;2023-04-01T02:49:06;10.10;99.90
678;DHT22;321;48.814;9.132;2023-04-01T02:51:32;10.10;99.90
678;DHT22;321;48.814;9.132;2023-04-01T02:53:58;10.00;99.90
678;DHT22;321;48.814;9.132;2023-04-01T02:56:23;10.00;99.90
678;DHT22;321;48.814;9.132;2023-04-01T02:58:49;10.00;99.90
678;DHT22;321;48.814;9.132;2023-04-01T03:01:15;10.10;99.90
678;DHT22;321;48.814;9.132;2023-04-01T03:03:41;10.10;99.90
678;DHT22;321;48.814;9.132;2023-04-01T03:06:12;10.10;99.90
678;DHT22;321;48.814;9.132;2023-04-01T03:08:39;10.00;99.90
678;DHT22;321;48.814;9.132;2023-04-01T03:11:05;10.00;99.90
678;DHT22;321;48.814;9.132;2023-04-01T03:13:31;10.00;99.90
678;DHT22;321;48.814;9.132;2023-04-01T03:15:57;10.20;99.90
678;DHT22;321;48.814;9.132;2023-04-01T03:18:23;10.20;99.90
678;DHT22;321;48.814;9.132;2023-04-01T03:20:48;10.20;99.90
678;DHT22;321;48.814;9.132;2023-04-01T03:23:14;10.10;99.90
678;DHT22;321;48.814;9.132;2023-04-01T03:25:41;10.20;99.90
678;DHT22;321;48.814;9.132;2023-04-01T03:28:07;10.00;99.90
678;DHT22;321;48.814;9.132;2023-04-01T03:30:32;10.00;99.90
678;DHT22;321;48.814;9.132;2023-04-01T03:32:59;10.20;99.90
678;DHT22;321;48.814;9.132;2023-04-01T03:35:27;10.20;99.90
678;DHT22;321;48.814;9.132;2023-04-01T03:37:53;10.20;99.90
678;DHT22;321;48.814;9.132;2023-04-01T03:40:20;10.20;99.90
678;DHT22;321;48.814;9.132;2023-04-01T03:42:46;10.10;99.90
678;DHT22;321;48.814;9.132;2023-04-01T03:45:12;9.90;99.90
678;DHT22;321;48.814;9.132;2023-04-01T03:47:38;9.90;99.90
678;DHT22;321;48.814;9.132;2023-04-01T03:50:06;9.80;99.90
678;DHT22;321;48.814;9.132;2023-04-01T03:52:32;9.70;99.90
678;DHT22;321;48.814;9.132;2023-04-01T03:54:57;9.60;99.90
678;DHT22;321;48.814;9.132;2023-04-01T03:57:23;9.80;99.90
678;DHT22;321;48.814;9.132;2023-04-01T03:59:48;9.70;99.90
678;DHT22;321;48.814;9.132;2023-04-01T04:02:14;9.70;99.90
678;DHT22;321;48.814;9.132;2023-04-01T04:04:40;9.70;99.90
678;DHT22;321;48.814;9.132;2023-04-01T04:07:06;9.60;99.90
678;DHT22;321;48.814;9.132;2023-04-01T04:09:32;9.50;99.90
678;DHT22;321;48.814;9.132;2023-04-01T04:11:58;9.50;99.90
678;DHT22;321;48.814;9.132;2023-04-01T04:14:24;9.50;99.90
678;DHT22;321;48.814;9.132;2023-04-01T04:16:49;9.50;99.90
678;DHT22;321;48.814;9.132;2023-04-01T04:19:15;9.50;99.90
678;DHT22;321;48.814;9.132;2023-04-01T04:21:41;9.50;99.90
678;DHT22;321;48.814;9.132;2023-04-01T04:24:07;9.60;99.90
678;DHT22;321;48.814;9.132;2023-04-01T04:26:33;9.70;99.90
678;DHT22;321;48.814;9.132;2023-04-01T04:29:00;9.60;99.90
678;DHT22;321;48.814;9.132;2023-04-01T04:31:26;9.50;99.90
678;DHT22;321;48.814;9.132;2023-04-01T04:33:51;9.40;99.90
678;DHT22;321;48.814;9.132;2023-04-01T04:36:18;9.30;99.90
678;DHT22;321;48.814;9.132;2023-04-01T04:38:44;9.20;99.90
678;DHT22;321;48.814;9.132;2023-04-01T04:41:13;9.20;99.90
678;DHT22;321;48.814;9.132;2023-04-01T04:43:40;9.10;99.90
678;DHT22;321;48.814;9.132;2023-04-01T04:46:10;9.10;99.90
678;DHT22;321;48.814;9.132;2023-04-01T04:48:36;9.10;99.90
678;DHT22;321;48.814;9.132;2023-04-01T04:51:02;9.40;99.90
678;DHT22;321;48.814;9.132;2023-04-01T04:53:28;9.30;99.90
678;DHT22;321;48.814;9.132;2023-04-01T04:55:54;9.20;99.90
678;DHT22;321;48.814;9.132;2023-04-01T04:58:20;9.30;99.90
678;DHT22;321;48.814;9.132;2023-04-01T05:00:46;9.40;99.90
678;DHT22;321;48.814;9.132;2023-04-01T05:03:12;9.40;99.90
678;DHT22;321;48.814;9.132;2023-04-01T05:05:39;9.30;99.90
678;DHT22;321;48.814;9.132;2023-04-01T05:08:05;9.20;99.90
678;DHT22;321;48.814;9.132;2023-04-01T05:10:31;9.20;99.90
678;DHT22;321;48.814;9.132;2023-04-01T05:12:57;9.30;99.90
678;DHT22;321;48.814;9.132;2023-04-01T05:15:23;9.40;99.90
678;DHT22;321;48.814;9.132;2023-04-01T05:17:49;9.40;99.90
678;DHT22;321;48.814;9.132;2023-04-01T05:20:15;9.40;99.90
678;DHT22;321;48.814;9.132;2023-04-01T05:22:41;9.30;99.90
678;DHT22;321;48.814;9.132;2023-04-01T05:25:07;9.30;99.90
678;DHT22;321;48.814;9.132;2023-04-01T05:27:33;9.30;99.90
678;DHT22;321;48.814;9.132;2023-04-01T05:29:58;9.30;99.90
678;DHT22;321;48.814;9.132;2023-04-01T05:32:24;9.30;99.90
678;DHT22;321;48.814;9.132;2023-04-01T05:34:53;9.50;99.90
678;DHT22;321;48.814;9.132;2023-04-01T05:37:19;9.60;99.90
678;DHT22;321;48.814;9.132;2023-04-01T05:39:45;9.60;99.90
678;DHT22;321;48.814;9.132;2023-04-01T05:42:11;9.80;99.90
678;DHT22;321;48.814;9.132;2023-04-01T05:44:37;9.90;99.90
678;DHT22;321;48.814;9.132;2023-04-01T05:47:03;9.70;99.90
678;DHT22;321;48.814;9.132;2023-04-01T05:49:29;9.80;99.90
678;DHT22;321;48.814;9.132;2023-04-01T05:51:55;9.90;99.90
678;DHT22;321;48.814;9.132;2023-04-01T05:54:21;10.10;99.90
678;DHT22;321;48.814;9.132;2023-04-01T05:56:47;10.00;99.90
678;DHT22;321;48.814;9.132;2023-04-01T05:59:12;10.10;99.90
678;DHT22;321;48.814;9.132;2023-04-01T06:01:38;10.10;99.90
678;DHT22;321;48.814;9.132;2023-04-01T06:04:04;10.10;99.90
678;DHT22;321;48.814;9.132;2023-04-01T06:06:31;10.20;99.90
678;DHT22;321;48.814;9.132;2023-04-01T06:09:06;10.30;99.90
678;DHT22;321;48.814;9.132;2023-04-01T06:12:04;10.40;99.90
678;DHT22;321;48.814;9.132;2023-04-01T06:15:02;10.60;99.90
678;DHT22;321;48.814;9.132;2023-04-01T06:17:52;10.80;99.90
678;DHT22;321;48.814;9.132;2023-04-01T06:20:34;10.90;99.90
678;DHT22;321;48.814;9.132;2023-04-01T06:23:29;11.00;99.90
678;DHT22;321;48.814;9.132;2023-04-01T06:29:25;10.80;99.90
678;DHT22;321;48.814;9.132;2023-04-01T06:43:39;11.10;99.90
678;DHT22;321;48.814;9.132;2023-04-01T06:51:32;11.30;99.90
678;DHT22;321;48.814;9.132;2023-04-01T06:54:07;11.10;99.90
678;DHT22;321;48.814;9.132;2023-04-01T06:56:37;11.20;99.90
678;DHT22;321;48.814;9.132;2023-04-01T06:59:19;11.20;99.90
678;DHT22;321;48.814;9.132;2023-04-01T07:01:50;11.30;99.90
678;DHT22;321;48.814;9.132;2023-04-01T07:04:25;11.50;99.90
678;DHT22;321;48.814;9.132;2023-04-01T07:07:04;11.80;99.90
678;DHT22;321;48.814;9.132;2023-04-01T07:09:38;11.90;99.90
678;DHT22;321;48.814;9.132;2023-04-01T07:14:55;12.00;99.90
678;DHT22;321;48.814;9.132;2023-04-01T07:17:25;12.10;99.90
678;DHT22;321;48.814;9.132;2023-04-01T07:22:49;11.70;99.90
678;DHT22;321;48.814;9.132;2023-04-01T07:25:21;11.70;99.90
678;DHT22;321;48.814;9.132;2023-04-01T07:27:48;11.80;99.90
678;DHT22;321;48.814;9.132;2023-04-01T07:30:20;11.90;99.90
678;DHT22;321;48.814;9.132;2023-04-01T07:33:11;11.90;99.90
678;DHT22;321;48.814;9.132;2023-04-01T07:35:41;11.80;99.90
678;DHT22;321;48.814;9.132;2023-04-01T07:44:28;11.60;99.90
678;DHT22;321;48.814;9.132;2023-04-01T07:47:08;11.60;99.90
678;DHT22;321;48.814;9.132;2023-04-01T07:52:30;11.70;99.90
678;DHT22;321;48.814;9.132;2023-04-01T08:01:21;12.00;99.90
678;DHT22;321;48.814;9.132;2023-04-01T08:06:45;12.40;99.90
678;DHT22;321;48.814;9.132;2023-04-01T08:12:08;12.60;99.90
678;DHT22;321;48.814;9.132;2023-04-01T08:14:47;12.60;99.90
678;DHT22;321;48.814;9.132;2023-04-01T08:20:04;12.50;99.90
678;DHT22;321;48.814;9.132;2023-04-01T08:22:42;12.40;99.90
678;DHT22;321;48.814;9.132;2023-04-01T08:25:16;12.70;99.90
678;DHT22;321;48.814;9.132;2023-04-01T08:27:51;12.60;99.90
678;DHT22;321;48.814;9.132;2023-04-01T08:30:27;12.50;99.90
678;DHT22;321;48.814;9.132;2023-04-01T08:33:17;12.60;99.90
678;DHT22;321;48.814;9.132;2023-04-01T08:35:55;12.60;99.90
678;DHT22;321;48.814;9.132;2023-04-01T08:39:12;12.40;99.90
678;DHT22;321;48.814;9.132;2023-04-01T08:47:16;12.20;99.90
678;DHT22;321;48.814;9.132;2023-04-01T08:49:55;12.20;99.90
678;DHT22;321;48.814;9.132;2023-04-01T08:52:34;12.20;99.90
678;DHT22;321;48.814;9.132;2023-04-01T09:00:37;11.80;99.90
678;DHT22;321;48.814;9.132;2023-04-01T09:03:25;11.70;99.90
678;DHT22;321;48.814;9.132;2023-04-01T09:08:41;11.50;99.90
678;DHT22;321;48.814;9.132;2023-04-01T09:13:49;11.60;99.90
678;DHT22;321;48.814;9.132;2023-04-01T09:19:23;11.90;99.90
678;DHT22;321;48.814;9.132;2023-04-01T09:51:48;12.90;99.90
678;DHT22;321;48.814;9.132;2023-04-01T09:57:10;13.10;99.90
678;DHT22;321;48.814;9.132;2023-04-01T10:05:30;13.10;99.90
678;DHT22;321;48.814;9.132;2023-04-01T10:10:49;13.00;99.90
678;DHT22;321;48.814;9.132;2023-04-01T10:19:19;13.20;99.90
678;DHT22;321;48.814;9.132;2023-04-01T10:35:28;14.90;99.90
678;DHT22;321;48.814;9.132;2023-04-01T11:00:35;12.90;99.90
678;DHT22;321;48.814;9.132;2023-04-01T11:03:20;12.70;99.90
678;DHT22;321;48.814;9.132;2023-04-01T11:06:30;12.70;99.90
678;DHT22;321;48.814;9.132;2023-04-01T11:20:51;13.80;99.90
678;DHT22;321;48.814;9.132;2023-04-01T11:29:53;13.90;99.90
678;DHT22;321;48.814;9.132;2023-04-01T11:35:38;14.40;99.90
678;DHT22;321;48.814;9.132;2023-04-01T11:38:24;14.50;99.90
678;DHT22;321;48.814;9.132;2023-04-01T11:41:32;14.50;99.90
678;DHT22;321;48.814;9.132;2023-04-01T11:44:19;14.40;99.90
678;DHT22;321;48.814;9.132;2023-04-01T11:55:28;14.80;99.90
678;DHT22;321;48.814;9.132;2023-04-01T12:03:48;14.30;99.90
678;DHT22;321;48.814;9.132;2023-04-01T12:06:44;14.20;99.90
678;DHT22;321;48.814;9.132;2023-04-01T12:09:33;14.20;99.90
678;DHT22;321;48.814;9.132;2023-04-01T12:12:35;14.00;99.90
678;DHT22;321;48.814;9.132;2023-04-01T12:15:26;13.90;99.90
678;DHT22;321;48.814;9.132;2023-04-01T12:35:32;13.30;99.90
678;DHT22;321;48.814;9.132;2023-04-01T12:41:39;13.90;99.90
678;DHT22;321;48.814;9.132;2023-04-01T12:44:26;14.00;99.90
678;DHT22;321;48.814;9.132;2023-04-01T12:52:12;14.20;99.90
678;DHT22;321;48.814;9.132;2023-04-01T12:57:33;14.50;99.90
678;DHT22;321;48.814;9.132;2023-04-01T13:00:35;14.30;99.90
678;DHT22;321;48.814;9.132;2023-04-01T13:03:40;14.40;99.90
678;DHT22;321;48.814;9.132;2023-04-01T13:18:03;14.00;99.90
678;DHT22;321;48.814;9.132;2023-04-01T13:28:39;13.70;99.90
678;DHT22;321;48.814;9.132;2023-04-01T13:34:03;13.60;99.90
678;DHT22;321;48.814;9.132;2023-04-01T13:37:20;13.80;99.90
678;DHT22;321;48.814;9.132;2023-04-01T13:42:59;13.80;99.90
678;DHT22;321;48.814;9.132;2023-04-01T13:45:35;13.80;99.90
678;DHT22;321;48.814;9.132;2023-04-01T13:48:29;13.60;99.90
678;DHT22;321;48.814;9.132;2023-04-01T14:02:29;13.70;99.90
678;DHT22;321;48.814;9.132;2023-04-01T14:21:37;13.60;99.90
678;DHT22;321;48.814;9.132;2023-04-01T14:24:42;13.60;99.90
678;DHT22;321;48.814;9.132;2023-04-01T14:27:45;13.70;99.90
678;DHT22;321;48.814;9.132;2023-04-01T14:35:35;13.10;99.90
678;DHT22;321;48.814;9.132;2023-04-01T14:41:20;13.10;99.90
678;DHT22;321;48.814;9.132;2023-04-01T14:49:53;12.70;99.90
678;DHT22;321;48.814;9.132;2023-04-01T14:52:28;12.80;99.90
678;DHT22;321;48.814;9.132;2023-04-01T14:54:56;12.90;99.90
678;DHT22;321;48.814;9.132;2023-04-01T14:57:29;12.70;99.90
678;DHT22;321;48.814;9.132;2023-04-01T15:08:34;13.10;99.90
678;DHT22;321;48.814;9.132;2023-04-01T15:14:29;13.00;99.90
678;DHT22;321;48.814;9.132;2023-04-01T15:30:31;13.20;99.90
678;DHT22;321;48.814;9.132;2023-04-01T15:38:40;13.30;99.90
678;DHT22;321;48.814;9.132;2023-04-01T15:41:35;13.10;99.90
678;DHT22;321;48.814;9.132;2023-04-01T15:44:01;13.20;99.90
678;DHT22;321;48.814;9.132;2023-04-01T15:46:48;13.20;99.90
678;DHT22;321;48.814;9.132;2023-04-01T15:51:53;13.10;99.90
678;DHT22;321;48.814;9.132;2023-04-01T15:57:12;13.30;99.90
678;DHT22;321;48.814;9.132;2023-04-01T16:10:49;13.00;99.90
678;DHT22;321;48.814;9.132;2023-04-01T16:13:46;12.90;99.90
678;DHT22;321;48.814;9.132;2023-04-01T16:16:31;12.90;99.90
678;DHT22;321;48.814;9.132;2023-04-01T16:21:57;12.80;99.90
678;DHT22;321;48.814;9.132;2023-04-01T16:24:51;12.80;99.90
678;DHT22;321;48.814;9.132;2023-04-01T16:30:17;12.50;99.90
678;DHT22;321;48.814;9.132;2023-04-01T16:32:54;12.40;99.90
678;DHT22;321;48.814;9.132;2023-04-01T16:38:14;12.30;99.90
678;DHT22;321;48.814;9.132;2023-04-01T16:51:24;12.50;99.90
678;DHT22;321;48.814;9.132;2023-04-01T16:54:06;12.60;99.90
678;DHT22;321;48.814;9.132;2023-04-01T16:56:49;12.70;99.90
678;DHT22;321;48.814;9.132;2023-04-01T16:59:27;12.60;99.90
678;DHT22;321;48.814;9.132;2023-04-01T17:05:07;12.60;99.90
678;DHT22;321;48.814;9.132;2023-04-01T17:07:55;12.80;99.90
678;DHT22;321;48.814;9.132;2023-04-01T17:13:25;12.80;99.90
678;DHT22;321;48.814;9.132;2023-04-01T17:24:28;12.60;99.90
678;DHT22;321;48.814;9.132;2023-04-01T17:30:16;12.80;99.90
678;DHT22;321;48.814;9.132;2023-04-01T17:32:54;12.60;99.90
678;DHT22;321;48.814;9.132;2023-04-01T17:35:29;12.60;99.90
678;DHT22;321;48.814;9.132;2023-04-01T17:41:16;12.70;99.90
678;DHT22;321;48.814;9.132;2023-04-01T17:44:10;12.60;99.90
678;DHT22;321;48.814;9.132;2023-04-01T17:46:56;12.60;99.90
678;DHT22;321;48.814;9.132;2023-04-01T17:49:49;12.40;99.90
678;DHT22;321;48.814;9.132;2023-04-01T17:52:29;12.40;99.90
678;DHT22;321;48.814;9.132;2023-04-01T17:57:48;12.40;99.90
678;DHT22;321;48.814;9.132;2023-04-01T18:00:27;12.40;99.90
678;DHT22;321;48.814;9.132;2023-04-01T18:19:45;11.90;99.90
678;DHT22;321;48.814;9.132;2023-04-01T18:22:23;11.90;99.90
678;DHT22;321;48.814;9.132;2023-04-01T18:25:30;11.90;99.90
678;DHT22;321;48.814;9.132;2023-04-01T18:30:49;12.00;99.90
678;DHT22;321;48.814;9.132;2023-04-01T18:33:24;11.80;99.90
678;DHT22;321;48.814;9.132;2023-04-01T18:35:58;11.80;99.90
678;DHT22;321;48.814;9.132;2023-04-01T18:38:39;11.80;99.90
678;DHT22;321;48.814;9.132;2023-04-01T18:52:22;11.20;99.90
678;DHT22;321;48.814;9.132;2023-04-01T18:57:45;11.10;99.90
678;DHT22;321;48.814;9.132;2023-04-01T19:00:22;10.90;99.90
678;DHT22;321;48.814;9.132;2023-04-01T19:03:09;10.80;99.90
678;DHT22;321;48.814;9.132;2023-04-01T19:05:38;10.80;99.90
678;DHT22;321;48.814;9.132;2023-04-01T19:08:28;10.70;99.90
678;DHT22;321;48.814;9.132;2023-04-01T19:11:15;10.70;99.90
678;DHT22;321;48.814;9.132;2023-04-01T19:16:57;10.70;99.90
678;DHT22;321;48.814;9.132;2023-04-01T19:22:34;10.60;99.90
678;DHT22;321;48.814;9.132;2023-04-01T19:25:25;10.40;99.90
678;DHT22;321;48.814;9.132;2023-04-01T19:31:23;10.30;99.90
678;DHT22;321;48.814;9.132;2023-04-01T19:39:58;10.20;99.90
678;DHT22;321;48.814;9.132;2023-04-01T19:45:43;10.30;99.90
678;DHT22;321;48.814;9.132;2023-04-01T19:48:37;10.30;99.90
678;DHT22;321;48.814;9.132;2023-04-01T19:51:13;10.20;99.90
678;DHT22;321;48.814;9.132;2023-04-01T20:03:24;10.10;99.90
678;DHT22;321;48.814;9.132;2023-04-01T20:11:36;10.40;99.90
678;DHT22;321;48.814;9.132;2023-04-01T20:14:12;10.40;99.90
678;DHT22;321;48.814;9.132;2023-04-01T20:16:50;10.50;99.90
678;DHT22;321;48.814;9.132;2023-04-01T20:19:39;10.40;99.90
678;DHT22;321;48.814;9.132;2023-04-01T20:24:45;10.50;99.90
678;DHT22;321;48.814;9.132;2023-04-01T20:44:29;10.80;99.90
678;DHT22;321;48.814;9.132;2023-04-01T20:49:41;11.00;99.90
678;DHT22;321;48.814;9.132;2023-04-01T20:58:09;10.80;99.90
678;DHT22;321;48.814;9.132;2023-04-01T21:00:45;10.80;99.90
678;DHT22;321;48.814;9.132;2023-04-01T21:09:30;10.80;99.90
678;DHT22;321;48.814;9.132;2023-04-01T21:12:15;10.80;99.90
678;DHT22;321;48.814;9.132;2023-04-01T21:17:41;10.80;99.90
678;DHT22;321;48.814;9.132;2023-04-01T21:20:23;10.90;99.90
678;DHT22;321;48.814;9.132;2023-04-01T21:23:29;10.90;99.90
678;DHT22;321;48.814;9.132;2023-04-01T21:26:05;10.80;99.90
678;DHT22;321;48.814;9.132;2023-04-01T21:28:50;11.00;99.90
678;DHT22;321;48.814;9.132;2023-04-01T21:39:42;10.90;99.90
678;DHT22;321;48.814;9.132;2023-04-01T21:42:15;10.90;99.90
678;DHT22;321;48.814;9.132;2023-04-01T22:01:06;10.70;99.90
678;DHT22;321;48.814;9.132;2023-04-01T22:06:55;10.80;99.90
678;DHT22;321;48.814;9.132;2023-04-01T22:09:29;10.50;99.90
678;DHT22;321;48.814;9.132;2023-04-01T22:17:50;10.20;99.90
678;DHT22;321;48.814;9.132;2023-04-01T22:20:23;10.30;99.90
678;DHT22;321;48.814;9.132;2023-04-01T22:23:01;10.40;99.90
678;DHT22;321;48.814;9.132;2023-04-01T22:31:02;10.30;99.90
678;DHT22;321;48.814;9.132;2023-04-01T22:42:15;10.70;99.90
678;DHT22;321;48.814;9.132;2023-04-01T22:44:48;10.70;99.90
678;DHT22;321;48.814;9.132;2023-04-01T22:50:20;10.70;99.90
678;DHT22;321;48.814;9.132;2023-04-01T22:52:49;10.70;99.90
678;DHT22;321;48.814;9.132;2023-04-01T22:55:20;10.60;99.90
678;DHT22;321;48.814;9.132;2023-04-01T22:58:05;10.70;99.90
678;DHT22;321;48.814;9.132;2023-04-01T23:00:43;10.60;99.90
678;DHT22;321;48.814;9.132;2023-04-01T23:03:32;10.80;99.90
678;DHT22;321;48.814;9.132;2023-04-01T23:06:02;10.90;99.90
678;DHT22;321;48.814;9.132;2023-04-01T23:09:07;10.80;99.90
678;DHT22;321;48.814;9.132;2023-04-01T23:14:31;10.80;99.90
678;DHT22;321;48.814;9.132;2023-04-01T23:36:10;10.70;99.90
678;DHT22;321;48.814;9.132;2023-04-01T23:38:40;10.70;99.90
678;DHT22;321;48.814;9.132;2023-04-01T23:41:09;10.80;99.90
678;DHT22;321;48.814;9.132;2023-04-01T23:43:43;10.50;99.90
678;DHT22;321;48.814;9.132;2023-04-01T23:46:11;10.50;99.90
678;DHT22;321;48.814;9.132;2023-04-01T23:48:40;10.70;99.90
678;DHT22;321;48.814;9.132;2023-04-01T23:51:22;10.80;99.90
678;DHT22;321;48.814;9.132;2023-04-01T23:54:01;10.60;99.90
678;DHT22;321;48.814;9.132;2023-04-01T23:56:35;10.50;99.90
678;DHT22;321;48.814;9.132;2023-04-01T23:59:02;10.60;99.90
